Time;durP1;ratioP1;P1;durP2;ratioP2;P2;SDS_P1;SDS_P2;PMS_P1;PMS_P2;Temp;Humidity;BMP_temperature;BMP_pressure;BME280_temperature;BME280_humidity;BME280_pressure;Samples;Min_cycle;Max_cycle;Signal;HPM_P1;HPM_P2
2021/12/22 00:17:33;;;;;;;5.32;2.95;;;;;;;;;;7388925;19;20034;-57
2021/12/22 00:20:01;;;;;;;9.65;3.33;;;;;;;;;;7396163;19;20011;-59
2021/12/22 00:22:28;;;;;;;5.97;2.50;;;;;;;;;;7396622;19;20016;-60
2021/12/22 00:24:56;;;;;;;8.30;3.05;;;;;;;;;;7396861;19;20025;-66
2021/12/22 00:27:23;;;;;;;4.55;2.95;;;;;;;;;;7396304;19;20483;-57
2021/12/22 00:29:52;;;;;;;4.88;2.53;;;;;;;;;;7395680;19;20018;-57
2021/12/22 00:32:20;;;;;;;4.68;2.42;;;;;;;;;;7395902;19;20006;-66
2021/12/22 00:34:52;;;;;;;9.40;2.75;;;;;;;;;;7396300;19;20034;-64
2021/12/22 00:37:29;;;;;;;7.10;2.97;;;;;;;;;;7395355;19;20447;-64
2021/12/22 00:39:57;;;;;;;6.18;3.10;;;;;;;;;;7396406;19;20010;-64
2021/12/22 00:42:25;;;;;;;5.88;3.15;;;;;;;;;;7395117;19;20354;-65
2021/12/22 00:44:54;;;;;;;5.70;3.08;;;;;;;;;;7396622;19;20006;-64
2021/12/22 00:47:25;;;;;;;6.43;2.95;;;;;;;;;;7396695;19;20011;-65
2021/12/22 00:49:54;;;;;;;5.85;2.70;;;;;;;;;;7396262;19;20035;-61
2021/12/22 00:52:22;;;;;;;6.03;3.05;;;;;;;;;;7395943;19;20014;-60
2021/12/22 00:54:49;;;;;;;5.28;2.80;;;;;;;;;;7400212;19;20006;-64
2021/12/22 00:57:17;;;;;;;5.45;2.65;;;;;;;;;;7394808;19;20006;-62
2021/12/22 00:59:46;;;;;;;4.32;2.40;;;;;;;;;;7396073;19;20119;-61
2021/12/22 01:02:18;;;;;;;7.10;3.00;;;;;;;;;;7394618;19;20010;-55
2021/12/22 01:04:46;;;;;;;6.30;2.92;;;;;;;;;;7395907;19;20021;-64
2021/12/22 01:07:13;;;;;;;6.22;2.83;;;;;;;;;;7395504;19;20014;-56
2021/12/22 01:09:41;;;;;;;5.35;2.92;;;;;;;;;;7395674;19;20006;-56
2021/12/22 01:12:09;;;;;;;4.93;2.83;;;;;;;;;;7395590;19;20011;-58
2021/12/22 01:14:38;;;;;;;6.03;3.40;;;;;;;;;;7395483;19;20066;-55
2021/12/22 01:17:07;;;;;;;8.05;3.25;;;;;;;;;;7395580;19;20006;-56
2021/12/22 02:16:36;;;;;;;4.43;2.28;;;;;;;;;;7389904;19;20687;-67
2021/12/22 03:59:34;;;;;;;3.58;2.08;;;;;;;;;;7388494;19;20046;-54
2021/12/22 04:02:02;;;;;;;4.60;2.60;;;;;;;;;;7390397;19;20074;-53
2021/12/22 04:04:30;;;;;;;3.63;2.30;;;;;;;;;;7390293;19;20034;-52
2021/12/22 04:06:57;;;;;;;6.00;2.30;;;;;;;;;;7390313;19;20011;-66
2021/12/22 04:09:27;;;;;;;14.20;4.97;;;;;;;;;;7388132;19;20003;-58
2021/12/22 04:11:55;;;;;;;6.40;3.47;;;;;;;;;;7391076;19;20027;-65
2021/12/22 04:14:23;;;;;;;5.07;2.40;;;;;;;;;;7394700;19;20007;-64
2021/12/22 04:16:50;;;;;;;5.78;3.00;;;;;;;;;;7397206;19;20007;-53
2021/12/22 04:19:17;;;;;;;6.05;2.85;;;;;;;;;;7397341;19;20011;-63
2021/12/22 04:21:45;;;;;;;4.97;2.63;;;;;;;;;;7397452;19;20015;-57
2021/12/22 04:24:12;;;;;;;4.72;2.67;;;;;;;;;;7397581;19;20018;-51
2021/12/22 18:04:09;;;;;;;3.63;2.03;;;;;;;;;;7387656;19;20002;-61
2021/12/22 18:06:37;;;;;;;3.15;2.00;;;;;;;;;;7393897;19;20014;-49
2021/12/22 18:09:08;;;;;;;4.15;2.03;;;;;;;;;;7389221;19;20011;-60
2021/12/22 18:11:36;;;;;;;3.92;2.15;;;;;;;;;;7397648;19;20031;-60
2021/12/22 18:14:03;;;;;;;4.45;2.13;;;;;;;;;;7391634;19;20017;-60
2021/12/22 18:16:31;;;;;;;3.85;1.77;;;;;;;;;;7393164;19;20011;-50
2021/12/22 18:19:03;;;;;;;3.38;1.88;;;;;;;;;;7392240;19;20010;-54
2021/12/22 18:21:31;;;;;;;3.13;2.22;;;;;;;;;;7393283;19;20011;-51
2021/12/22 18:23:58;;;;;;;5.18;2.45;;;;;;;;;;7393769;19;20010;-59
2021/12/22 18:26:27;;;;;;;3.28;1.98;;;;;;;;;;7393675;19;20497;-60
2021/12/22 18:28:54;;;;;;;120.78;39.22;;;;;;;;;;7393807;19;20047;-52
2021/12/22 18:31:22;;;;;;;63.70;25.73;;;;;;;;;;7393185;19;20022;-56
2021/12/22 18:33:50;;;;;;;3.80;2.38;;;;;;;;;;7391004;19;20046;-62
2021/12/22 18:36:18;;;;;;;5.38;2.80;;;;;;;;;;7393114;19;20014;-61
2021/12/22 18:38:45;;;;;;;5.00;2.35;;;;;;;;;;7390010;19;20683;-49
2021/12/22 18:41:20;;;;;;;5.60;2.30;;;;;;;;;;7391137;19;20027;-48
2021/12/22 18:43:49;;;;;;;4.97;2.78;;;;;;;;;;7392282;19;20031;-61
2021/12/22 18:46:20;;;;;;;4.65;2.72;;;;;;;;;;7391935;19;20468;-52
2021/12/22 18:48:48;;;;;;;5.15;2.45;;;;;;;;;;7396498;19;20006;-60
2021/12/22 18:51:15;;;;;;;4.88;2.53;;;;;;;;;;7392382;19;20014;-53
2021/12/22 18:53:43;;;;;;;3.97;2.58;;;;;;;;;;7392159;19;20019;-49
2021/12/22 18:56:10;;;;;;;4.32;2.40;;;;;;;;;;7392547;19;20022;-59
2021/12/22 18:58:38;;;;;;;4.45;2.10;;;;;;;;;;7391282;19;20006;-61
2021/12/22 19:01:05;;;;;;;4.10;2.03;;;;;;;;;;7392397;19;20018;-51
2021/12/22 19:03:33;;;;;;;4.60;2.40;;;;;;;;;;7391680;19;20033;-57
2021/12/22 19:06:01;;;;;;;6.22;2.60;;;;;;;;;;7392045;19;20077;-65
2021/12/22 19:08:29;;;;;;;5.10;2.55;;;;;;;;;;7392352;19;20014;-67
2021/12/22 19:10:56;;;;;;;3.95;2.42;;;;;;;;;;7391684;19;20034;-65
2021/12/22 19:13:24;;;;;;;5.70;2.38;;;;;;;;;;7392138;19;20006;-59
2021/12/22 19:15:52;;;;;;;5.97;2.67;;;;;;;;;;7389672;19;20017;-67
2021/12/22 19:18:20;;;;;;;5.38;3.00;;;;;;;;;;7391920;19;20015;-62
2021/12/22 19:20:48;;;;;;;9.85;3.20;;;;;;;;;;7391614;19;20025;-67
2021/12/22 19:23:16;;;;;;;6.32;2.40;;;;;;;;;;7391260;19;20074;-66
2021/12/22 19:25:45;;;;;;;3.33;2.30;;;;;;;;;;7391574;19;20010;-60
2021/12/22 19:28:13;;;;;;;5.15;2.60;;;;;;;;;;7391335;19;20006;-59
2021/12/22 19:30:41;;;;;;;5.45;3.35;;;;;;;;;;7391081;19;20530;-60
2021/12/22 19:33:11;;;;;;;4.72;2.53;;;;;;;;;;7391271;19;20018;-60
2021/12/22 19:35:44;;;;;;;5.75;2.92;;;;;;;;;;7391096;19;20116;-60
2021/12/22 19:38:14;;;;;;;5.82;2.88;;;;;;;;;;7391029;19;20039;-58
2021/12/22 19:40:43;;;;;;;5.05;2.30;;;;;;;;;;7391301;19;20023;-67
2021/12/22 19:43:10;;;;;;;5.85;2.28;;;;;;;;;;7390980;19;20018;-58
2021/12/22 19:45:38;;;;;;;16.13;5.18;;;;;;;;;;7396238;19;20014;-59
2021/12/22 19:48:06;;;;;;;3.38;2.10;;;;;;;;;;7398760;19;20017;-57
2021/12/22 19:50:39;;;;;;;3.67;2.30;;;;;;;;;;7398342;19;20015;-60
2021/12/22 19:53:09;;;;;;;6.10;2.80;;;;;;;;;;7396732;19;20531;-57
2021/12/22 19:55:39;;;;;;;3.38;1.98;;;;;;;;;;7398484;19;20010;-57
2021/12/22 19:58:07;;;;;;;3.63;2.25;;;;;;;;;;7397547;19;20051;-66
2021/12/22 20:00:36;;;;;;;4.07;2.05;;;;;;;;;;7398004;19;20750;-58
2021/12/22 20:03:07;;;;;;;3.13;1.80;;;;;;;;;;7398148;19;20022;-61
2021/12/22 20:05:36;;;;;;;7.10;2.35;;;;;;;;;;7397663;19;20022;-65
2021/12/22 20:08:04;;;;;;;5.20;2.30;;;;;;;;;;7398704;19;20024;-66
2021/12/22 20:10:38;;;;;;;5.82;1.90;;;;;;;;;;7397785;19;20019;-65
2021/12/22 20:13:06;;;;;;;3.55;2.05;;;;;;;;;;7398324;19;20015;-62
2021/12/22 20:15:34;;;;;;;3.22;1.90;;;;;;;;;;7397390;19;20014;-61
2021/12/22 20:18:02;;;;;;;4.00;2.55;;;;;;;;;;7395379;19;20025;-60
2021/12/22 20:20:29;;;;;;;4.60;2.35;;;;;;;;;;7396667;19;20011;-58
2021/12/22 20:22:57;;;;;;;4.30;2.45;;;;;;;;;;7397642;19;20017;-58
2021/12/22 20:25:25;;;;;;;4.15;2.30;;;;;;;;;;7397387;19;20011;-61
2021/12/22 20:27:53;;;;;;;4.55;2.47;;;;;;;;;;7396898;19;20034;-59
2021/12/22 20:30:25;;;;;;;5.18;2.80;;;;;;;;;;7396467;19;20074;-67
2021/12/22 20:32:53;;;;;;;4.63;2.70;;;;;;;;;;7396683;19;20010;-59
2021/12/22 20:35:22;;;;;;;3.33;2.10;;;;;;;;;;7396190;19;20014;-54
2021/12/22 20:37:52;;;;;;;38.33;15.18;;;;;;;;;;7396467;19;20020;-61
2021/12/22 20:40:22;;;;;;;4.63;2.72;;;;;;;;;;7393629;19;20014;-64
2021/12/22 20:42:49;;;;;;;5.63;2.85;;;;;;;;;;7396569;19;20010;-59
2021/12/22 20:45:21;;;;;;;5.10;3.38;;;;;;;;;;7396661;19;20107;-65
2021/12/22 20:47:50;;;;;;;6.53;3.60;;;;;;;;;;7396620;19;20011;-59
2021/12/22 20:50:23;;;;;;;7.00;3.20;;;;;;;;;;7396205;19;20019;-69
2021/12/22 20:52:51;;;;;;;;;;;;;;;;;;7398660;19;20035;-71
2021/12/22 20:55:18;;;;;;;7.00;3.55;;;;;;;;;;7395452;19;19922;-64
2021/12/22 20:57:46;;;;;;;6.82;3.97;;;;;;;;;;7396339;19;20017;-69
2021/12/22 21:00:18;;;;;;;10.52;4.00;;;;;;;;;;7393424;19;20018;-61
2021/12/22 21:02:46;;;;;;;5.32;3.40;;;;;;;;;;7394420;19;20019;-59
2021/12/22 21:05:14;;;;;;;9.32;3.97;;;;;;;;;;7395762;19;20589;-66
2021/12/22 21:07:43;;;;;;;23.45;10.60;;;;;;;;;;7395386;19;20019;-58
2021/12/22 21:10:13;;;;;;;12.55;4.25;;;;;;;;;;7395657;19;20034;-60
2021/12/22 21:12:44;;;;;;;10.13;3.10;;;;;;;;;;7395955;19;20010;-69
2021/12/22 21:15:12;;;;;;;6.75;3.80;;;;;;;;;;7395828;19;20010;-60
2021/12/22 21:17:40;;;;;;;9.27;3.97;;;;;;;;;;7395468;19;20014;-59
2021/12/22 21:20:11;;;;;;;5.43;3.17;;;;;;;;;;7393719;19;20035;-64
2021/12/22 21:22:39;;;;;;;9.73;3.30;;;;;;;;;;7395612;19;20010;-64
2021/12/22 21:25:07;;;;;;;7.80;3.65;;;;;;;;;;7395312;19;20486;-62
2021/12/22 21:27:35;;;;;;;9.40;3.38;;;;;;;;;;7395662;19;20011;-58
2021/12/22 21:30:05;;;;;;;7.78;3.60;;;;;;;;;;7393378;19;20006;-62
2021/12/22 21:32:33;;;;;;;6.57;3.47;;;;;;;;;;7394509;19;20035;-60
2021/12/22 21:35:00;;;;;;;5.70;3.15;;;;;;;;;;7394614;19;20205;-60
2021/12/22 21:37:29;;;;;;;6.82;2.70;;;;;;;;;;7393232;19;20010;-60
2021/12/22 21:39:56;;;;;;;6.60;3.33;;;;;;;;;;7394392;19;20007;-67
2021/12/22 21:42:24;;;;;;;7.32;3.33;;;;;;;;;;7394220;19;20040;-65
2021/12/22 21:44:51;;;;;;;6.93;2.40;;;;;;;;;;7394593;19;20584;-58
2021/12/22 21:47:20;;;;;;;6.18;3.03;;;;;;;;;;7396237;19;20025;-59
2021/12/22 21:49:53;;;;;;;3.83;2.50;;;;;;;;;;7395072;19;20029;-60
2021/12/22 21:52:21;;;;;;;9.93;3.95;;;;;;;;;;7393999;19;20010;-61
2021/12/22 21:54:49;;;;;;;5.22;2.90;;;;;;;;;;7397919;19;20030;-67
2021/12/22 21:57:17;;;;;;;5.18;2.85;;;;;;;;;;7394656;19;20135;-66
2021/12/22 21:59:47;;;;;;;6.07;2.92;;;;;;;;;;7391757;19;20011;-60
2021/12/22 22:02:16;;;;;;;7.80;3.10;;;;;;;;;;7393640;19;20360;-68
2021/12/22 22:04:44;;;;;;;5.40;2.65;;;;;;;;;;7393941;19;20011;-68
2021/12/22 22:07:14;;;;;;;5.03;2.30;;;;;;;;;;7392472;19;20028;-69
2021/12/22 22:09:42;;;;;;;4.70;2.30;;;;;;;;;;7393812;19;20010;-68
2021/12/22 22:12:10;;;;;;;7.68;3.22;;;;;;;;;;7394036;19;20013;-66
2021/12/22 22:14:38;;;;;;;4.40;2.10;;;;;;;;;;7394366;19;20020;-62
2021/12/22 22:17:06;;;;;;;4.53;2.40;;;;;;;;;;7394041;19;20010;-67
2021/12/22 22:19:37;;;;;;;7.45;2.70;;;;;;;;;;7392121;19;20559;-68
2021/12/22 22:22:04;;;;;;;6.82;2.75;;;;;;;;;;7393083;19;20043;-59
2021/12/22 22:24:31;;;;;;;6.20;3.40;;;;;;;;;;7394035;19;20006;-69
2021/12/22 22:26:59;;;;;;;7.32;2.83;;;;;;;;;;7393747;19;20041;-62
2021/12/22 22:29:26;;;;;;;5.00;2.58;;;;;;;;;;7393114;19;20519;-60
2021/12/22 22:31:53;;;;;;;6.40;3.13;;;;;;;;;;7391334;19;20058;-69
2021/12/22 22:34:22;;;;;;;6.22;2.70;;;;;;;;;;7392542;19;20006;-59
2021/12/22 22:36:49;;;;;;;7.35;3.10;;;;;;;;;;7392709;19;20014;-70
2021/12/22 22:39:17;;;;;;;6.25;3.40;;;;;;;;;;7391960;19;20104;-65
2021/12/22 22:41:44;;;;;;;6.20;2.90;;;;;;;;;;7392759;19;20010;-59
2021/12/22 22:44:11;;;;;;;8.02;3.78;;;;;;;;;;7392800;19;20011;-67
2021/12/22 22:46:39;;;;;;;5.07;2.47;;;;;;;;;;7391795;19;20014;-58
2021/12/22 22:49:06;;;;;;;5.80;2.83;;;;;;;;;;7392158;19;20074;-67
2021/12/22 22:51:34;;;;;;;6.03;3.00;;;;;;;;;;7391831;19;20479;-62
2021/12/22 22:54:02;;;;;;;5.60;2.83;;;;;;;;;;7395331;19;20010;-68
2021/12/22 22:56:30;;;;;;;9.85;3.03;;;;;;;;;;7392425;19;20010;-69
2021/12/22 22:58:57;;;;;;;5.25;2.63;;;;;;;;;;7391843;19;20419;-60
2021/12/22 23:01:24;;;;;;;6.40;3.08;;;;;;;;;;7392047;19;20010;-58
2021/12/22 23:03:52;;;;;;;5.22;3.03;;;;;;;;;;7390408;19;20010;-68
2021/12/22 23:06:20;;;;;;;6.05;3.20;;;;;;;;;;7392079;19;20025;-61
2021/12/22 23:08:47;;;;;;;7.53;3.20;;;;;;;;;;7391988;19;20078;-67
2021/12/22 23:11:14;;;;;;;4.78;2.50;;;;;;;;;;7391703;19;20011;-58
2021/12/22 23:13:45;;;;;;;5.80;2.72;;;;;;;;;;7391768;19;20006;-68
2021/12/22 23:16:14;;;;;;;6.05;2.63;;;;;;;;;;7392295;19;20348;-60
2021/12/22 23:18:42;;;;;;;4.15;2.45;;;;;;;;;;7387927;19;20014;-58
2021/12/22 23:21:10;;;;;;;4.43;2.17;;;;;;;;;;7390660;19;20015;-58
2021/12/22 23:23:37;;;;;;;6.05;2.50;;;;;;;;;;7391011;19;20354;-66
2021/12/22 23:26:04;;;;;;;5.80;2.55;;;;;;;;;;7391842;19;20017;-61
2021/12/22 23:28:32;;;;;;;6.57;2.67;;;;;;;;;;7391911;19;20007;-69
2021/12/22 23:31:00;;;;;;;5.22;2.17;;;;;;;;;;7391336;19;20023;-61
2021/12/22 23:33:30;;;;;;;4.88;2.30;;;;;;;;;;7391029;19;20034;-68
2021/12/22 23:36:12;;;;;;;4.20;2.33;;;;;;;;;;7391080;19;20090;-68
2021/12/22 23:49:04;;;;;;;7.80;2.85;;;;;;;;;;7390850;19;20007;-69
2021/12/22 23:51:33;;;;;;;4.28;2.42;;;;;;;;;;7389992;19;20347;-60
2021/12/22 23:54:00;;;;;;;6.13;2.78;;;;;;;;;;7392960;19;20011;-67
2021/12/22 23:56:28;;;;;;;4.28;2.53;;;;;;;;;;7390516;19;20011;-69
2021/12/22 23:58:55;;;;;;;5.50;2.78;;;;;;;;;;7390183;19;20026;-64
